Time;durP1;ratioP1;P1;durP2;ratioP2;P2;SDS_P1;SDS_P2;PMS_P1;PMS_P2;Temp;Humidity;BMP_temperature;BMP_pressure;BME280_temperature;BME280_humidity;BME280_pressure;Samples;Min_cycle;Max_cycle;Signal;HPM_P1;HPM_P2
2022/01/09 00:00:34;;;;;;;;;73.50;59.00;3.40;71.40;;;;;;5055372;28;8766;-68
2022/01/09 00:03:00;;;;;;;;;74.75;60.75;3.30;70.60;;;;;;5055365;28;8775;-67
2022/01/09 00:05:26;;;;;;;;;73.50;58.50;3.30;71.00;;;;;;5055001;28;8882;-69
2022/01/09 00:07:53;;;;;;;;;70.50;59.00;3.30;70.10;;;;;;5054366;28;8791;-67
2022/01/09 00:10:20;;;;;;;;;83.50;64.75;3.00;73.30;;;;;;5055058;28;8954;-68
2022/01/09 00:12:47;;;;;;;;;80.50;63.25;3.20;72.40;;;;;;5055131;28;8786;-67
2022/01/09 00:15:13;;;;;;;;;83.25;67.00;2.90;74.00;;;;;;5054958;28;8783;-68
2022/01/09 00:17:39;;;;;;;;;84.00;67.25;3.10;74.00;;;;;;5054881;28;8771;-68
2022/01/09 00:20:06;;;;;;;;;79.50;62.75;3.40;72.80;;;;;;5054776;28;8785;-66
2022/01/09 00:22:48;;;;;;;;;91.50;71.00;3.20;72.10;;;;;;5054455;28;8783;-67
2022/01/09 00:25:15;;;;;;;;;84.75;69.50;3.60;71.60;;;;;;5053763;28;9472;-68
2022/01/09 00:27:42;;;;;;;;;87.25;68.75;3.50;71.60;;;;;;5054231;28;8806;-65
2022/01/09 00:30:10;;;;;;;;;97.00;74.75;3.70;71.40;;;;;;5054848;28;8754;-67
2022/01/09 00:32:36;;;;;;;;;92.75;74.75;3.70;71.20;;;;;;5054664;28;8767;-66
2022/01/09 00:35:04;;;;;;;;;100.00;76.00;3.70;71.40;;;;;;5054604;28;8793;-67
2022/01/09 00:37:30;;;;;;;;;94.75;72.00;3.60;71.50;;;;;;5054069;28;8803;-68
2022/01/09 00:39:56;;;;;;;;;89.25;67.25;3.40;73.30;;;;;;5054421;28;8794;-67
2022/01/09 00:42:22;;;;;;;;;89.50;70.25;3.30;74.40;;;;;;5054514;28;8802;-66
2022/01/09 00:44:48;;;;;;;;;87.00;67.50;3.00;76.90;;;;;;5054720;28;8802;-66
2022/01/09 00:47:13;;;;;;;;;90.00;71.50;2.90;78.60;;;;;;5054637;28;9452;-66
2022/01/09 00:49:39;;;;;;;;;96.50;73.50;3.10;76.10;;;;;;5054636;28;9420;-67
2022/01/09 00:52:05;;;;;;;;;78.50;61.50;3.30;75.00;;;;;;5053375;28;8803;-65
2022/01/09 00:54:31;;;;;;;;;85.25;69.25;3.60;72.70;;;;;;5053786;28;8845;-67
2022/01/09 00:56:57;;;;;;;;;88.50;69.75;3.70;71.00;;;;;;5054368;28;8798;-67
2022/01/09 00:59:22;;;;;;;;;87.00;70.00;3.70;71.50;;;;;;5059859;28;8768;-68
2022/01/09 01:01:49;;;;;;;;;88.50;69.00;3.50;71.80;;;;;;5056173;28;8783;-67
2022/01/09 01:04:14;;;;;;;;;88.00;70.00;3.20;74.00;;;;;;5054496;28;8767;-68
2022/01/09 01:06:40;;;;;;;;;85.75;67.75;3.10;73.90;;;;;;5054172;28;8817;-64
2022/01/09 01:09:06;;;;;;;;;94.75;70.00;3.70;72.00;;;;;;5054584;28;8790;-66
2022/01/09 01:11:32;;;;;;;;;89.75;71.25;3.80;70.40;;;;;;5054029;28;8807;-64
2022/01/09 01:13:58;;;;;;;;;89.75;70.00;4.00;69.10;;;;;;5054131;28;8770;-67
2022/01/09 01:16:23;;;;;;;;;89.75;69.25;3.80;69.30;;;;;;5054032;28;8771;-66
2022/01/09 01:18:49;;;;;;;;;95.50;73.50;3.70;70.30;;;;;;5054079;28;8840;-66
2022/01/09 01:21:15;;;;;;;;;98.50;82.00;4.00;69.20;;;;;;5054302;28;8763;-67
2022/01/09 01:23:41;;;;;;;;;98.00;75.25;4.00;68.90;;;;;;5054025;28;9406;-66
2022/01/09 01:26:07;;;;;;;;;86.50;67.75;3.90;69.20;;;;;;5054275;28;8790;-65
2022/01/09 01:28:33;;;;;;;;;85.75;67.00;3.60;70.00;;;;;;5053908;28;8791;-65
2022/01/09 01:30:59;;;;;;;;;78.25;63.00;3.50;71.60;;;;;;5053804;28;8807;-66
2022/01/09 01:33:25;;;;;;;;;87.75;68.00;3.80;70.50;;;;;;5053926;28;8771;-66
2022/01/09 01:35:51;;;;;;;;;89.00;70.00;3.50;70.80;;;;;;5054093;28;8747;-65
2022/01/09 01:38:17;;;;;;;;;91.75;71.25;3.70;70.50;;;;;;5054383;28;8815;-67
2022/01/09 01:40:43;;;;;;;;;87.00;69.75;4.10;69.20;;;;;;5053787;28;9463;-66
2022/01/09 01:43:09;;;;;;;;;82.25;64.25;3.70;71.00;;;;;;5054096;28;8759;-64
2022/01/09 01:45:36;;;;;;;;;85.00;67.00;3.90;70.20;;;;;;5053784;28;8779;-64
2022/01/09 01:48:06;;;;;;;;;87.25;69.00;3.50;71.90;;;;;;5053826;28;8767;-66
2022/01/09 01:50:38;;;;;;;;;85.25;66.25;3.50;71.80;;;;;;5053762;28;8799;-66
2022/01/09 01:53:11;;;;;;;;;85.00;65.00;3.70;71.10;;;;;;5053948;28;8783;-66
2022/01/09 01:55:38;;;;;;;;;74.25;60.00;3.70;71.40;;;;;;5053981;28;9544;-64
2022/01/09 01:58:06;;;;;;;;;80.25;66.00;3.80;70.70;;;;;;5053699;28;8794;-65
2022/01/09 02:00:32;;;;;;;;;82.25;65.00;3.90;69.70;;;;;;5053723;28;8787;-65
2022/01/09 02:02:58;;;;;;;;;102.25;85.50;3.90;70.00;;;;;;5055782;28;9509;-67
2022/01/09 02:05:24;;;;;;;;;93.00;73.00;3.90;69.50;;;;;;5057336;28;8744;-65
2022/01/09 02:07:51;;;;;;;;;84.25;64.50;3.90;69.20;;;;;;5057559;28;8799;-65
2022/01/09 02:10:17;;;;;;;;;81.50;64.00;4.20;68.10;;;;;;5057176;28;8856;-66
2022/01/09 02:12:44;;;;;;;;;76.75;60.25;4.30;68.00;;;;;;5057493;28;8759;-65
2022/01/09 02:15:46;;;;;;;;;74.25;59.00;4.40;66.60;;;;;;5057300;28;8763;-65
2022/01/09 02:18:13;;;;;;;;;77.50;62.75;4.50;66.50;;;;;;4995776;28;8877;-67
2022/01/09 02:20:40;;;;;;;;;79.25;61.50;4.70;65.70;;;;;;4995663;28;8770;-65
2022/01/09 02:23:08;;;;;;;;;80.75;64.00;4.60;65.90;;;;;;4979401;28;8845;-65
2022/01/09 02:25:35;;;;;;;;;40.00;32.75;4.30;67.10;;;;;;4993689;28;8779;-65
2022/01/09 02:28:01;;;;;;;;;76.25;62.25;4.30;66.60;;;;;;4995435;28;8894;-67
2022/01/09 02:30:29;;;;;;;;;83.75;66.00;4.40;66.70;;;;;;4995475;28;8822;-65
2022/01/09 02:32:54;;;;;;;;;78.25;64.00;4.50;65.70;;;;;;4995502;28;9437;-67
2022/01/09 02:35:24;;;;;;;;;81.00;65.00;4.20;66.60;;;;;;4995392;28;8805;-67
2022/01/09 02:37:50;;;;;;;;;85.25;63.00;4.20;67.10;;;;;;4995274;28;8898;-65
2022/01/09 02:40:16;;;;;;;;;87.75;69.00;4.30;66.30;;;;;;4995281;28;8786;-67
2022/01/09 02:42:42;;;;;;;;;83.00;68.75;4.50;66.10;;;;;;4995329;28;8774;-67
2022/01/09 02:45:08;;;;;;;;;88.00;69.25;4.10;67.50;;;;;;4995259;28;8901;-66
2022/01/09 02:47:35;;;;;;;;;88.50;68.25;4.10;67.40;;;;;;4995191;28;8786;-67
2022/01/09 02:52:50;;;;;;;;;84.25;67.50;4.00;67.20;;;;;;5026675;28;8801;-67
2022/01/09 02:55:17;;;;;;;;;88.50;70.75;4.40;66.30;;;;;;5036736;28;8844;-68
2022/01/09 02:57:48;;;;;;;;;93.25;73.50;4.60;65.40;;;;;;5036474;28;8778;-67
2022/01/09 03:00:20;;;;;;;;;82.00;63.75;4.90;63.90;;;;;;5036385;28;8789;-66
2022/01/09 03:02:46;;;;;;;;;90.75;70.00;4.30;65.10;;;;;;5036403;28;8791;-66
2022/01/09 03:05:12;;;;;;;;;79.00;61.50;4.50;65.00;;;;;;5036475;28;8883;-66
2022/01/09 03:07:40;;;;;;;;;89.75;70.25;4.70;64.20;;;;;;5036372;28;8894;-67
2022/01/09 03:10:08;;;;;;;;;80.50;64.00;4.50;64.40;;;;;;5036418;28;8880;-67
2022/01/09 03:12:34;;;;;;;;;86.75;68.50;4.60;64.30;;;;;;5036395;28;8778;-67
2022/01/09 03:15:00;;;;;;;;;87.25;67.75;4.50;64.60;;;;;;5035417;28;9393;-67
2022/01/09 03:17:27;;;;;;;;;87.00;69.50;4.40;64.80;;;;;;5036114;28;8769;-67
2022/01/09 03:19:53;;;;;;;;;77.50;59.50;4.00;66.20;;;;;;5036339;28;8788;-67
2022/01/09 03:22:18;;;;;;;;;81.50;65.25;4.30;65.20;;;;;;5036055;28;8789;-67
2022/01/09 03:24:44;;;;;;;;;77.50;59.50;3.90;66.80;;;;;;5035947;28;8781;-67
2022/01/09 03:27:11;;;;;;;;;80.00;64.50;4.10;66.00;;;;;;5035728;28;8809;-67
2022/01/09 03:29:37;;;;;;;;;80.25;64.50;3.90;66.40;;;;;;5035954;28;8778;-64
2022/01/09 03:32:04;;;;;;;;;77.50;63.00;4.00;65.90;;;;;;5035747;28;8836;-66
2022/01/09 03:34:30;;;;;;;;;63.25;52.25;4.20;65.70;;;;;;5035725;28;8773;-66
2022/01/09 03:36:56;;;;;;;;;80.75;63.50;4.30;65.10;;;;;;5035808;28;8783;-66
2022/01/09 03:39:21;;;;;;;;;83.50;63.00;4.40;64.60;;;;;;5035607;28;8777;-67
2022/01/09 03:41:47;;;;;;;;;90.00;70.50;4.60;64.30;;;;;;5035826;28;8900;-66
2022/01/09 03:44:13;;;;;;;;;87.25;69.25;4.30;65.30;;;;;;5035544;28;8781;-68
2022/01/09 03:46:39;;;;;;;;;97.50;78.50;4.40;64.60;;;;;;5035510;28;8777;-68
2022/01/09 03:49:05;;;;;;;;;105.50;86.00;4.20;64.60;;;;;;5035480;28;8770;-67
2022/01/09 03:51:37;;;;;;;;;95.00;78.00;4.00;65.50;;;;;;5035576;28;8801;-67
2022/01/09 03:54:06;;;;;;;;;102.50;82.75;4.10;66.20;;;;;;5035438;28;8785;-67
2022/01/09 03:56:33;;;;;;;;;101.25;86.75;3.80;66.40;;;;;;5035554;28;8802;-67
2022/01/09 03:58:59;;;;;;;;;101.00;82.00;3.90;66.90;;;;;;5035495;28;8773;-66
2022/01/09 04:01:25;;;;;;;;;102.75;88.75;3.90;65.90;;;;;;5035484;28;8778;-67
2022/01/09 04:03:51;;;;;;;;;107.25;93.75;3.90;66.50;;;;;;5035138;28;8800;-68
2022/01/09 04:06:17;;;;;;;;;110.00;100.25;3.90;66.80;;;;;;5034029;28;8809;-69
2022/01/09 04:08:43;;;;;;;;;127.75;111.50;4.00;66.30;;;;;;5035328;28;8806;-67
2022/01/09 04:11:10;;;;;;;;;113.00;100.00;4.40;65.30;;;;;;5034973;28;8894;-66
2022/01/09 04:13:37;;;;;;;;;116.25;108.00;4.30;65.50;;;;;;5035192;28;8773;-66
2022/01/09 04:16:04;;;;;;;;;127.00;114.50;4.10;65.70;;;;;;5035231;28;8909;-65
2022/01/09 04:18:31;;;;;;;;;124.00;111.50;4.00;66.70;;;;;;5035183;28;8855;-66
2022/01/09 04:20:58;;;;;;;;;114.00;105.00;3.50;69.20;;;;;;5035081;28;8774;-65
2022/01/09 04:23:24;;;;;;;;;118.25;104.50;3.10;71.60;;;;;;5034866;28;8792;-66
2022/01/09 04:25:50;;;;;;;;;109.00;104.00;3.10;72.90;;;;;;5034853;28;8803;-66
2022/01/09 04:28:17;;;;;;;;;130.00;119.00;3.20;72.50;;;;;;5034655;28;8903;-65
2022/01/09 04:30:43;;;;;;;;;130.00;113.50;2.90;74.40;;;;;;5034631;28;8817;-68
2022/01/09 04:33:10;;;;;;;;;143.75;128.75;2.90;74.70;;;;;;5034925;28;8792;-69
2022/01/09 04:35:37;;;;;;;;;150.75;134.25;2.70;76.20;;;;;;5034939;28;8843;-67
2022/01/09 04:38:03;;;;;;;;;159.25;145.75;2.70;75.70;;;;;;5034807;28;8822;-64
2022/01/09 04:40:29;;;;;;;;;149.25;133.00;2.80;75.40;;;;;;5034556;28;8769;-67
2022/01/09 04:42:58;;;;;;;;;151.75;138.75;3.00;73.50;;;;;;5033491;28;8908;-66
2022/01/09 04:45:26;;;;;;;;;162.50;140.00;3.40;71.40;;;;;;5034483;28;8790;-65
2022/01/09 04:47:53;;;;;;;;;156.25;137.75;3.70;69.20;;;;;;5034666;28;8876;-65
2022/01/09 04:50:27;;;;;;;;;155.00;142.75;3.80;68.50;;;;;;5034622;28;8793;-65
2022/01/09 04:52:58;;;;;;;;;164.00;152.25;3.80;68.40;;;;;;5034819;28;8924;-64
2022/01/09 04:55:25;;;;;;;;;168.50;155.50;3.60;68.90;;;;;;5034571;28;8769;-65
2022/01/09 04:57:51;;;;;;;;;136.50;129.25;3.60;69.20;;;;;;5034475;28;8793;-64
2022/01/09 05:00:17;;;;;;;;;147.75;132.50;3.90;67.70;;;;;;5034636;28;8785;-64
2022/01/09 05:02:42;;;;;;;;;158.00;140.50;3.80;67.30;;;;;;5034626;28;8777;-64
2022/01/09 05:05:09;;;;;;;;;112.25;98.25;3.80;67.30;;;;;;5034645;28;8793;-65
2022/01/09 05:07:36;;;;;;;;;167.00;153.75;3.80;66.10;;;;;;5034417;28;8797;-65
2022/01/09 05:10:04;;;;;;;;;173.25;161.75;3.80;66.50;;;;;;5034515;28;9476;-65
2022/01/09 05:12:30;;;;;;;;;177.75;157.50;3.50;67.40;;;;;;5034350;28;8812;-65
2022/01/09 05:14:55;;;;;;;;;174.50;154.00;3.50;68.60;;;;;;5034402;28;9427;-65
2022/01/09 05:17:21;;;;;;;;;177.75;158.25;3.40;69.00;;;;;;5034233;28;8781;-64
2022/01/09 05:19:48;;;;;;;;;177.75;160.25;3.20;69.60;;;;;;5033190;28;8794;-65
2022/01/09 05:22:13;;;;;;;;;176.50;151.25;3.30;68.80;;;;;;5034218;28;8797;-65
2022/01/09 05:24:39;;;;;;;;;155.25;143.50;3.00;69.70;;;;;;5034223;28;8774;-66
2022/01/09 05:27:05;;;;;;;;;171.75;146.25;3.00;69.20;;;;;;5034039;28;8813;-65
2022/01/09 05:29:31;;;;;;;;;174.75;164.75;2.90;70.50;;;;;;5034343;28;8786;-65
2022/01/09 05:31:57;;;;;;;;;176.75;156.00;3.00;70.30;;;;;;5034241;28;8825;-67
2022/01/09 05:34:23;;;;;;;;;166.25;148.25;2.90;70.50;;;;;;5034236;28;8773;-65
2022/01/09 05:36:48;;;;;;;;;168.50;155.75;3.20;69.50;;;;;;5033001;28;8781;-67
2022/01/09 05:39:14;;;;;;;;;160.00;145.25;3.50;68.10;;;;;;5037936;28;9534;-64
2022/01/09 05:41:42;;;;;;;;;160.75;142.00;3.70;66.70;;;;;;5037884;28;8790;-66
2022/01/09 05:44:08;;;;;;;;;162.50;145.00;3.70;66.00;;;;;;5038061;28;8789;-67
2022/01/09 05:46:33;;;;;;;;;160.75;144.25;3.40;67.20;;;;;;5037703;28;8983;-67
2022/01/09 05:48:59;;;;;;;;;179.75;165.75;3.60;67.20;;;;;;5038070;28;8789;-66
2022/01/09 05:51:25;;;;;;;;;191.25;173.75;3.30;68.20;;;;;;5037562;28;8858;-66
2022/01/09 05:53:51;;;;;;;;;187.75;177.25;3.20;69.50;;;;;;5037553;28;8847;-66
2022/01/09 05:56:17;;;;;;;;;194.75;182.75;3.00;70.90;;;;;;5037526;28;8805;-66
2022/01/09 05:58:42;;;;;;;;;227.00;201.50;2.80;72.30;;;;;;5037780;28;8765;-67
2022/01/09 06:01:08;;;;;;;;;248.00;225.25;2.70;72.70;;;;;;5037732;28;9474;-68
2022/01/09 06:03:35;;;;;;;;;262.25;222.50;2.80;72.50;;;;;;5037394;28;8769;-68
2022/01/09 06:06:00;;;;;;;;;280.00;251.75;2.60;73.60;;;;;;5037458;28;8754;-67
2022/01/09 06:08:26;;;;;;;;;269.25;234.50;2.80;72.50;;;;;;5037706;28;8805;-66
2022/01/09 06:10:52;;;;;;;;;245.75;217.25;3.10;70.70;;;;;;5037267;28;8824;-67
2022/01/09 06:13:18;;;;;;;;;212.25;190.75;3.40;68.90;;;;;;5037486;28;8777;-67
2022/01/09 06:15:44;;;;;;;;;252.00;221.75;3.50;68.00;;;;;;5037264;28;8758;-67
2022/01/09 06:18:12;;;;;;;;;235.00;208.50;3.50;67.50;;;;;;5037182;28;8773;-66
2022/01/09 06:20:38;;;;;;;;;243.25;222.25;3.50;67.60;;;;;;5037150;28;8867;-67
2022/01/09 06:23:04;;;;;;;;;225.50;194.25;3.60;67.30;;;;;;5037323;28;8770;-67
2022/01/09 06:25:30;;;;;;;;;207.75;180.25;3.80;66.20;;;;;;5037065;28;8784;-68
2022/01/09 06:27:56;;;;;;;;;225.75;205.50;3.50;67.00;;;;;;5036832;28;8802;-68
2022/01/09 06:30:21;;;;;;;;;240.75;218.75;3.60;66.80;;;;;;5036960;28;8858;-69
2022/01/09 06:32:47;;;;;;;;;233.75;206.75;3.50;67.10;;;;;;5036931;28;8789;-69
2022/01/09 06:35:13;;;;;;;;;257.00;228.25;3.40;68.00;;;;;;5035862;28;8785;-68
2022/01/09 06:37:39;;;;;;;;;258.25;222.75;3.20;68.80;;;;;;5036793;28;8813;-67
2022/01/09 06:40:05;;;;;;;;;257.50;239.00;3.00;70.30;;;;;;5036992;28;8810;-68
2022/01/09 06:42:31;;;;;;;;;275.00;242.50;2.90;70.60;;;;;;5036996;28;8782;-69
2022/01/09 06:44:57;;;;;;;;;308.25;261.75;3.00;71.40;;;;;;5036795;28;8786;-66
2022/01/09 06:47:23;;;;;;;;;264.50;227.50;2.80;70.90;;;;;;5035483;28;8798;-68
2022/01/09 06:49:49;;;;;;;;;287.75;253.75;3.00;70.90;;;;;;5036455;28;8796;-66
2022/01/09 06:52:14;;;;;;;;;328.75;281.00;3.20;70.00;;;;;;5036709;28;8805;-66
2022/01/09 06:54:40;;;;;;;;;288.50;265.00;3.40;69.10;;;;;;5036879;28;8777;-68
2022/01/09 06:57:06;;;;;;;;;268.75;236.75;3.70;67.80;;;;;;5036382;28;9442;-68
2022/01/09 06:59:32;;;;;;;;;254.50;228.00;3.90;66.30;;;;;;5036535;28;8757;-68
2022/01/09 07:01:58;;;;;;;;;272.75;244.75;3.90;66.20;;;;;;5036677;28;8880;-68
2022/01/09 07:04:24;;;;;;;;;267.00;241.25;3.70;66.50;;;;;;5036567;28;9498;-68
2022/01/09 07:06:50;;;;;;;;;261.25;233.00;3.60;66.60;;;;;;5036344;28;9454;-67
2022/01/09 07:09:15;;;;;;;;;253.00;225.00;3.50;67.00;;;;;;5036154;28;8777;-68
2022/01/09 07:11:41;;;;;;;;;248.50;225.00;3.70;66.40;;;;;;5036337;28;8809;-68
2022/01/09 07:14:07;;;;;;;;;251.75;229.00;3.80;66.20;;;;;;5036639;28;8797;-67
2022/01/09 07:16:33;;;;;;;;;271.25;241.75;3.50;66.70;;;;;;5036336;28;8769;-68
2022/01/09 07:18:59;;;;;;;;;289.00;260.50;3.30;67.90;;;;;;5035059;28;8778;-67
2022/01/09 07:21:25;;;;;;;;;325.25;293.00;3.40;67.60;;;;;;5036028;28;9438;-66
2022/01/09 07:23:51;;;;;;;;;343.75;302.25;3.70;67.20;;;;;;5036303;28;8762;-67
2022/01/09 07:26:16;;;;;;;;;346.50;309.25;3.70;67.60;;;;;;5035812;28;8855;-68
2022/01/09 07:28:42;;;;;;;;;337.25;301.25;3.80;67.50;;;;;;5035665;28;8844;-66
2022/01/09 07:31:08;;;;;;;;;318.25;284.00;3.90;66.80;;;;;;5035972;28;8809;-69
2022/01/09 07:33:34;;;;;;;;;316.25;285.50;4.10;66.50;;;;;;5035959;28;8765;-68
2022/01/09 07:35:59;;;;;;;;;322.75;298.25;4.20;66.00;;;;;;5035727;28;9412;-67
2022/01/09 07:38:25;;;;;;;;;356.00;308.50;4.10;66.00;;;;;;5036131;28;8920;-68
2022/01/09 07:40:51;;;;;;;;;362.50;330.25;4.20;65.90;;;;;;5035472;28;8797;-69
2022/01/09 07:43:18;;;;;;;;;358.00;326.50;4.40;65.90;;;;;;5035828;28;9456;-68
2022/01/09 07:45:44;;;;;;;;;327.00;301.00;4.30;66.80;;;;;;5035862;28;8808;-68
2022/01/09 07:48:09;;;;;;;;;346.50;310.50;4.20;66.30;;;;;;5035407;28;8777;-68
2022/01/09 07:50:35;;;;;;;;;305.25;275.00;4.20;66.60;;;;;;5035460;28;8774;-69
2022/01/09 07:53:02;;;;;;;;;252.75;217.00;4.40;66.20;;;;;;5035630;28;9459;-68
2022/01/09 07:55:28;;;;;;;;;221.00;191.00;4.30;65.90;;;;;;5035370;28;8757;-68
2022/01/09 07:57:54;;;;;;;;;202.75;182.00;4.20;66.60;;;;;;5035260;28;8762;-68
2022/01/09 08:00:21;;;;;;;;;185.25;169.00;4.50;65.60;;;;;;5034713;28;8762;-68
2022/01/09 08:02:47;;;;;;;;;195.00;178.75;4.60;64.80;;;;;;5035155;28;8766;-67
2022/01/09 08:05:15;;;;;;;;;184.75;166.25;4.50;65.40;;;;;;5035464;28;8770;-68
2022/01/09 08:07:40;;;;;;;;;158.50;131.25;4.50;65.00;;;;;;5035375;28;8805;-68
2022/01/09 08:10:07;;;;;;;;;149.00;131.25;4.40;65.00;;;;;;5034177;28;8885;-67
2022/01/09 08:12:33;;;;;;;;;162.00;143.00;4.50;64.60;;;;;;5034993;28;8805;-68
2022/01/09 08:14:59;;;;;;;;;157.50;148.75;4.40;64.60;;;;;;5034998;28;8796;-69
2022/01/09 08:17:24;;;;;;;;;154.00;137.25;4.50;64.20;;;;;;5034985;28;8798;-68
2022/01/09 08:19:50;;;;;;;;;141.00;138.00;4.60;64.00;;;;;;5035235;28;8769;-68
2022/01/09 08:22:16;;;;;;;;;135.75;127.50;4.70;64.20;;;;;;5035107;28;8774;-68
2022/01/09 08:24:42;;;;;;;;;129.25;118.00;4.60;63.90;;;;;;5034846;28;8845;-67
2022/01/09 08:27:09;;;;;;;;;119.75;111.00;4.80;63.80;;;;;;5034864;28;8813;-68
2022/01/09 08:29:37;;;;;;;;;114.00;106.00;5.10;62.90;;;;;;5034755;28;8774;-67
2022/01/09 08:32:03;;;;;;;;;111.00;107.50;5.10;62.60;;;;;;5034877;28;8813;-66
2022/01/09 08:34:29;;;;;;;;;108.75;96.50;4.90;63.00;;;;;;5034612;28;9596;-68
2022/01/09 08:36:55;;;;;;;;;119.50;105.75;4.70;64.80;;;;;;5034587;28;8828;-67
2022/01/09 08:39:21;;;;;;;;;113.75;105.50;4.70;64.70;;;;;;5033629;28;8799;-66
2022/01/09 08:41:47;;;;;;;;;123.50;114.75;4.80;64.00;;;;;;5034553;28;8866;-69
2022/01/09 08:44:12;;;;;;;;;114.75;96.00;5.00;63.70;;;;;;5034452;28;8765;-67
2022/01/09 08:46:38;;;;;;;;;106.00;93.75;5.00;64.30;;;;;;5034801;28;8780;-67
2022/01/09 08:49:05;;;;;;;;;98.50;84.50;4.80;64.70;;;;;;5034742;28;9446;-68
2022/01/09 08:51:31;;;;;;;;;103.25;81.25;4.90;64.30;;;;;;5034399;28;8812;-68
2022/01/09 08:53:58;;;;;;;;;92.75;76.00;5.10;64.10;;;;;;5034426;28;8790;-68
2022/01/09 08:56:26;;;;;;;;;95.75;77.00;5.10;63.50;;;;;;5034414;28;9502;-68
2022/01/09 08:58:53;;;;;;;;;95.50;77.00;4.70;64.20;;;;;;5034272;28;8774;-67
2022/01/09 09:01:19;;;;;;;;;97.50;86.00;4.80;64.80;;;;;;5034380;28;8788;-68
2022/01/09 09:03:45;;;;;;;;;104.00;89.00;5.00;65.20;;;;;;5034348;28;8856;-67
2022/01/09 09:06:15;;;;;;;;;103.25;89.00;4.70;66.30;;;;;;5034451;28;8881;-67
2022/01/09 09:08:42;;;;;;;;;100.00;85.00;5.10;64.40;;;;;;5034573;28;8794;-66
2022/01/09 09:11:12;;;;;;;;;100.75;90.50;5.30;64.60;;;;;;5033637;28;8840;-67
2022/01/09 09:13:38;;;;;;;;;108.25;99.50;5.70;63.60;;;;;;5037195;28;8853;-67
2022/01/09 09:16:05;;;;;;;;;103.50;88.50;5.50;63.30;;;;;;5038362;28;8784;-66
2022/01/09 09:18:31;;;;;;;;;116.00;105.75;5.20;64.80;;;;;;5038348;28;8786;-66
2022/01/09 09:20:57;;;;;;;;;100.50;84.75;4.90;66.30;;;;;;5038297;28;8766;-67
2022/01/09 09:23:24;;;;;;;;;91.00;73.50;4.90;66.40;;;;;;5038189;28;8843;-65
2022/01/09 09:25:50;;;;;;;;;89.00;70.00;5.10;65.90;;;;;;5038136;28;8782;-67
2022/01/09 09:28:17;;;;;;;;;96.50;75.50;5.10;65.60;;;;;;5037857;28;8809;-66
2022/01/09 09:30:43;;;;;;;;;86.50;68.00;5.30;66.80;;;;;;5037982;28;8808;-67
2022/01/09 09:33:08;;;;;;;;;90.25;71.75;5.30;66.40;;;;;;5038129;28;8765;-65
2022/01/09 09:35:35;;;;;;;;;87.75;67.00;5.30;64.90;;;;;;5038251;28;8802;-67
2022/01/09 09:38:03;;;;;;;;;87.25;66.75;5.10;67.50;;;;;;5038173;28;8805;-64
2022/01/09 09:40:29;;;;;;;;;81.75;66.25;4.90;67.20;;;;;;5038139;28;8879;-65
2022/01/09 09:42:55;;;;;;;;;86.25;66.25;4.90;68.10;;;;;;5038096;28;8793;-65
2022/01/09 09:45:23;;;;;;;;;87.00;68.75;5.00;68.20;;;;;;5037944;28;8774;-66
2022/01/09 09:47:50;;;;;;;;;86.75;69.00;5.00;66.70;;;;;;5037838;28;8785;-68
2022/01/09 09:50:17;;;;;;;;;87.25;69.75;5.00;70.40;;;;;;5037739;28;8778;-66
2022/01/09 09:52:44;;;;;;;;;88.00;71.75;5.20;67.10;;;;;;5037635;28;8813;-66
2022/01/09 09:55:12;;;;;;;;;88.50;70.00;5.40;66.50;;;;;;5037607;28;8784;-66
2022/01/09 09:57:37;;;;;;;;;86.50;67.75;5.30;64.80;;;;;;5037625;28;8801;-66
2022/01/09 10:00:08;;;;;;;;;84.75;66.75;5.20;64.60;;;;;;5037526;28;8789;-67
2022/01/09 10:02:49;;;;;;;;;86.00;67.25;5.40;65.70;;;;;;5037797;28;8789;-66
2022/01/09 10:05:18;;;;;;;;;84.00;65.50;5.40;66.20;;;;;;5037466;28;8777;-68
2022/01/09 10:07:44;;;;;;;;;93.50;76.50;5.30;67.40;;;;;;5037521;28;8851;-67
2022/01/09 10:10:14;;;;;;;;;89.75;72.00;5.60;65.00;;;;;;5037410;28;8766;-68
2022/01/09 10:12:41;;;;;;;;;86.25;67.00;6.10;64.70;;;;;;5037312;28;8805;-67
2022/01/09 10:15:10;;;;;;;;;86.25;66.00;6.50;62.90;;;;;;5037246;28;8874;-69
2022/01/09 10:17:42;;;;;;;;;91.50;73.00;6.90;62.40;;;;;;5037266;28;8773;-66
2022/01/09 10:20:20;;;;;;;;;84.75;68.25;7.70;60.90;;;;;;5037272;28;8769;-65
2022/01/09 10:22:49;;;;;;;;;75.50;60.00;10.70;55.40;;;;;;5036706;28;8781;-64
2022/01/09 10:25:17;;;;;;;;;82.25;71.50;13.10;48.80;;;;;;5037194;28;8769;-69
2022/01/09 10:27:44;;;;;;;;;70.75;57.25;15.90;42.30;;;;;;5036849;28;8801;-70
2022/01/09 10:30:11;;;;;;;;;73.75;56.50;18.00;38.40;;;;;;5037177;28;9439;-68
2022/01/09 10:32:37;;;;;;;;;67.00;52.50;19.30;34.70;;;;;;5036874;28;9218;-68
2022/01/09 10:35:17;;;;;;;;;65.75;51.50;20.20;32.20;;;;;;5036916;28;8758;-67
2022/01/09 10:37:45;;;;;;;;;60.75;49.00;21.10;31.10;;;;;;5037043;28;8840;-68
2022/01/09 10:40:20;;;;;;;;;67.50;53.75;21.90;29.60;;;;;;5036831;28;8800;-67
2022/01/09 10:43:02;;;;;;;;;65.25;52.75;21.90;29.40;;;;;;5036812;28;8785;-66
2022/01/09 10:45:28;;;;;;;;;59.25;50.00;21.50;29.60;;;;;;5036821;28;8797;-65
2022/01/09 10:48:03;;;;;;;;;57.00;46.75;21.60;29.10;;;;;;5036979;28;9490;-66
2022/01/09 10:50:31;;;;;;;;;64.00;50.25;21.90;29.00;;;;;;5036612;28;8754;-65
2022/01/09 10:53:12;;;;;;;;;61.50;50.25;22.70;28.30;;;;;;5036628;28;8782;-65
2022/01/09 10:55:38;;;;;;;;;62.00;50.33;22.90;27.20;;;;;;5036487;28;8909;-65
2022/01/09 10:58:21;;;;;;;;;64.00;52.25;23.30;27.00;;;;;;5036831;28;8880;-68
2022/01/09 11:01:05;;;;;;;;;51.00;42.67;22.40;27.50;;;;;;5044992;28;8798;-65
2022/01/09 11:03:30;;;;;;;;;66.25;53.25;23.10;27.10;;;;;;5052848;28;8779;-67
2022/01/09 11:05:58;;;;;;;;;65.75;53.25;23.10;26.30;;;;;;5054714;28;8775;-67
2022/01/09 11:08:24;;;;;;;;;62.25;50.50;21.90;27.10;;;;;;5055157;28;8801;-67
2022/01/09 11:10:50;;;;;;;;;71.50;57.75;22.20;27.90;;;;;;5054785;28;8807;-69
2022/01/09 11:13:17;;;;;;;;;63.00;51.50;21.80;28.90;;;;;;5055531;28;8779;-69
2022/01/09 11:16:32;;;;;;;;;72.00;56.75;23.20;27.10;;;;;;5056173;28;8874;-67
2022/01/09 11:18:31;;;;;;;;;70.25;59.75;24.40;25.80;;;;;;5055154;28;8829;-68
2022/01/09 11:20:57;;;;;;;;;63.00;52.00;23.30;26.90;;;;;;5055091;28;8788;-67
2022/01/09 11:23:33;;;;;;;;;70.75;58.50;23.60;26.40;;;;;;5054826;28;9590;-67
2022/01/09 11:26:05;;;;;;;;;63.50;52.50;22.80;27.90;;;;;;5052490;28;9462;-70
2022/01/09 11:28:36;;;;;;;;;68.75;58.25;23.70;26.30;;;;;;5055529;28;8818;-67
2022/01/09 11:31:15;;;;;;;;;59.00;50.00;24.20;25.20;;;;;;5055066;28;8909;-69
2022/01/09 11:33:50;;;;;;;;;61.25;50.25;22.20;27.80;;;;;;5053724;28;8771;-65
2022/01/09 11:36:44;;;;;;;;;52.67;44.67;22.50;27.00;;;;;;5054318;28;8756;-65
2022/01/09 11:39:20;;;;;;;;;52.67;44.67;23.40;26.20;;;;;;5054162;28;8771;-67
2022/01/09 11:42:06;;;;;;;;;62.33;51.67;21.30;27.00;;;;;;5035562;28;8896;-68
2022/01/09 11:44:32;;;;;;;;;56.67;47.33;22.60;26.80;;;;;;5035927;28;9428;-71
2022/01/09 11:47:03;;;;;;;;;54.00;45.67;23.40;25.80;;;;;;5035820;28;8777;-65
2022/01/09 11:49:37;;;;;;;;;48.00;40.67;23.90;25.50;;;;;;5050611;28;8775;-67
2022/01/09 11:52:03;;;;;;;;;47.67;41.00;23.60;25.20;;;;;;5055609;28;8829;-64
2022/01/09 11:54:47;;;;;;;;;53.67;45.33;24.80;24.80;;;;;;5054282;28;8771;-64
2022/01/09 11:57:18;;;;;;;;;59.67;49.33;24.90;24.50;;;;;;5052889;28;8759;-64
2022/01/09 11:59:51;;;;;;;;;53.00;45.00;23.30;24.90;;;;;;5054739;28;8798;-64
2022/01/09 12:02:17;;;;;;;;;53.00;45.33;22.30;26.40;;;;;;5054104;28;8752;-69
2022/01/09 12:04:44;;;;;;;;;55.67;47.33;20.60;27.50;;;;;;5055039;28;8799;-70
2022/01/09 12:07:36;;;;;;;;;59.50;49.75;19.60;27.60;;;;;;5054756;28;9463;-68
2022/01/09 12:10:24;;;;;;;;;56.50;47.50;20.80;28.30;;;;;;5053932;28;8764;-70
2022/01/09 12:12:50;;;;;;;;;55.00;46.67;20.20;27.90;;;;;;5042910;28;8980;-69
2022/01/09 12:15:34;;;;;;;;;56.00;47.33;20.60;28.30;;;;;;5055092;28;8897;-69
2022/01/09 12:18:03;;;;;;;;;58.25;48.50;21.40;27.70;;;;;;5055089;28;8747;-71
2022/01/09 12:20:37;;;;;;;;;54.50;46.50;20.40;27.70;;;;;;5054797;28;8791;-71
2022/01/09 12:23:05;;;;;;;;;51.33;44.00;19.90;29.20;;;;;;5054327;28;8775;-70
2022/01/09 12:25:36;;;;;;;;;60.00;50.00;20.10;29.10;;;;;;5053077;28;8771;-68
2022/01/09 12:28:09;;;;;;;;;56.75;47.50;21.80;27.20;;;;;;5053548;28;8776;-70
2022/01/09 12:30:41;;;;;;;;;56.25;47.00;21.20;27.20;;;;;;5054895;28;9736;-70
2022/01/09 12:33:11;;;;;;;;;61.25;51.50;20.60;26.60;;;;;;5054722;28;8783;-62
2022/01/09 12:35:41;;;;;;;;;64.50;53.50;19.40;29.20;;;;;;5054567;28;9583;-66
2022/01/09 12:38:07;;;;;;;;;53.25;44.75;19.00;29.00;;;;;;5054500;28;8798;-65
2022/01/09 12:40:40;;;;;;;;;60.50;50.00;18.20;30.10;;;;;;5054818;28;8755;-65
2022/01/09 12:43:07;;;;;;;;;62.25;52.00;16.50;33.70;;;;;;5054603;28;8767;-64